Glendale, MA (01229)

8:12 AM EDT on May 06, 2015 (GMT -0400)
Devon Rd, Lee | | Change Station
CLOSE
Current Station
Personal Weather Station
Location: Lee, MA
Elevation: 1083 ft
Nearby Weather Stations

Elev 1083 ft 42.30 °N, 73.28 °W | Updated 15 seconds ago

Overcast
Overcast
53.4 °F
Feels Like 53.4 °F
N
0.0
Wind Variable Wind from NNW
Gusts 0.0 mph

Today
High -- | Low -- °F
--% Chance of Precip.
Yesterday
High -- | Low -- °F
Precip. -- in
5:42 AM 7:58 PM
Waning Gibbous, 94% visible
Pressure 30.26 in
Visibility 10.0 miles
Clouds Overcast 9500 ft
Dew Point 45 °F
Humidity 72%
Rainfall 0.00 in
Snow Depth Not available.
UV 1.0 out of 12
Pollen 10.00 out of 12
Air Quality Not available.
Flu Activity Widespread
METAR KPSF 061154Z AUTO 07003KT 10SM OVC095 13/03 A3030 RMK AO2 SLP245 T01280033 10128 20106 53015

More Conditions Fewer Conditions

Pressure 30.26 in
Visibility 10.0 miles
Clouds Overcast 9500 ft
Dew Point 45 °F
Humidity 72%
Rainfall 0.00 in
Snow Depth Not available.
UV 1.0 out of 12
Pollen 10.00 out of 12
Air Quality Not available.
Flu Activity Widespread
METAR KPSF 061154Z AUTO 07003KT 10SM OVC095 13/03 A3030 RMK AO2 SLP245 T01280033 10128 20106 53015

More Conditions Fewer Conditions

10-Day Weather Forecast

Almanac

Astronomy

May. 06, 2015 Rise Set
Actual Time
Civil Twilight
Nautical Twilight
Astronomical Twilight
Moon
Length of Visible Light
Length of Day
Tomorrow will be .
, % of the Moon is Illuminated

Today's Extremes

State Highs State Lows

Community

WunderPhotos

Upload Photos

1,818,882 photos uploaded!

WunderBlogs® & News

Nearby

Air Quality

  Air Quality AQ Index Pollutant
Not available.

Snow Depth

Station Depth Elevation

Earthquake Activity

City Distance Mag. Time & Date
Minimum magnitude displayed is 2.5.

Coastal Water Temperatures

Place Temperature

Stations

Nearby Weather Stations

Station Location Temp. Windchill Dew Point Humidity Wind Precip. Elev Updated Type